Terminal Aerodrome Forecast
Issued by NWS Cleveland, OH

Home | Current Version | Previous Version | Graphics & Text | Print | Product List | Glossary On
Versions: 1 2 3 4 5 6 7 8 9 10 11 12 13 14
501
FTUS41 KCLE 191120
TAFYNG
TAF
KYNG 191120Z 1912/2012 19004KT P6SM SCT250
     FM191500 25005KT P6SM SCT045
     FM192200 30006KT P6SM SCT250
     FM200900 00000KT 4SM BR SCT120
      TEMPO 2009/2012 2SM BR=

USA.gov is the U.S. government's official web portal to all federal, state and local government web resources and services.